Česky Dansk Deutsch English Español Suomi Français Magyar Italiano Nederlands norsk Polski Português svenska Türkçe

 

Het Weer

Malatya / Erhac (Turkije)

16:20, 12 augustus 2016 (GMT)

NWNNE
WE
SWSSE
Home            
Malatya / Erhac Elazig Urfa Gaziantep Sivas Erzincan Diyarbakir Kayseri / Erkilet Tokat Aleppo International Airport Iskenderun Batman Adana / Incirlik Adana / Sakirpasa Nevsehir Mus Tur-Afb Kamishli Trabzon Erzurum Samsun / Carsamba Merzifon Samsun Lattakia

Om een weerknop op uw website of weblog te plaatsen, copieer onderstaande code en plak die in uw pagina. In het eerste vakje staat HTML-code, in het tweede vakje UBB-code.


Add to Google

Details

Wind speed:2 bf, 5 kn, 2.6 m/s, 5.8 miles/h, 9.3 km/h
Wind direction:SW, 230°
Visibility:Greater than 10000 m, 10 km, 32800 ft, 6.2 miles
Clouds:Ein wenig bewölkt at 4000 ft, 1219 m
Temperature:31°C, 88°F
Gefühlte Temperatur:29°C, 85°F
Dew-point:9°C, 48°F
Atmospheric pressure:1009 hPa, 756.8 mmHg, 29.80 inHg, 0.996 atm
Relative humidity:25.6 %
METAR:LTAT 121620Z 23005KT 9999 FEW040 31/09 Q1009 BECMG TL1700 30013KT

Snelkoppelingen

Actuele weersinformatie van de hele wereld. Voeg locaties toe met het plus (+) symbool. Deze snelkoppelingen kunnen worden toegevoegd aan Google.

Lid van de Technetium groep

website free tracking
StatCounter NetStat W3C Validator

15-08-2022 08:25:20
astro.technetium.be money.technetium.be phote.technetium.be tafeltennistafel.technetium.be www.ligfiets.net